UZB777 UZTT-UCFM
Flight info
| Callsign | UZB777 |
|---|---|
| Flight time | N/A |
| Altitude | 37000 |
| Route | TISIB2A TISIB L143 RUDEK M34 GASTA JETTO1 |
| Aircraft | A320/M-SDE3FGHIRWY/LB1 |
Departure
| Time | 2026-04-25 15:55 |
|---|---|
| Airport | Tashkent International Airport (UZTT) |
Arrival
| Time | N/A |
|---|---|
| Airport | Manas International Airport (UCFM) |
| Time | Latitude | Longitude | Altitude | Speed | Heading |
|---|---|---|---|---|---|
| 2026-04-25 15:30 | 41.25883 | 69.26907 | 1425 ft | 0 kts | 65° |
| 2026-04-25 15:50 | 41.25885 | 69.26912 | 1425 ft | 1 kts | 65° |
| 2026-04-25 15:50 | 41.25889 | 69.26924 | 1425 ft | 1 kts | 65° |
| 2026-04-25 15:51 | 41.25896 | 69.26942 | 1425 ft | 2 kts | 56° |
| 2026-04-25 15:51 | 41.25906 | 69.26952 | 1425 ft | 3 kts | 24° |
| 2026-04-25 15:51 | 41.25934 | 69.26939 | 1425 ft | 4 kts | 303° |
| 2026-04-25 15:51 | 41.25932 | 69.26899 | 1425 ft | 4 kts | 254° |
| 2026-04-25 15:52 | 41.25918 | 69.26852 | 1425 ft | 5 kts | 245° |
| 2026-04-25 15:52 | 41.25897 | 69.26802 | 1425 ft | 6 kts | 236° |
| 2026-04-25 15:52 | 41.25872 | 69.26744 | 1425 ft | 7 kts | 245° |
| 2026-04-25 15:52 | 41.25849 | 69.26678 | 1425 ft | 8 kts | 245° |
| 2026-04-25 15:53 | 41.25825 | 69.26605 | 1425 ft | 9 kts | 245° |
| 2026-04-25 15:53 | 41.25798 | 69.26525 | 1425 ft | 9 kts | 246° |
| 2026-04-25 15:53 | 41.25769 | 69.26440 | 1425 ft | 10 kts | 240° |
| 2026-04-25 15:53 | 41.25704 | 69.26400 | 1425 ft | 10 kts | 174° |
| 2026-04-25 15:54 | 41.25666 | 69.26473 | 1425 ft | 11 kts | 77° |
| 2026-04-25 15:54 | 41.25670 | 69.26496 | 1425 ft | 0 kts | 82° |
| 2026-04-25 15:54 | 41.25673 | 69.26529 | 1425 ft | 16 kts | 83° |
| 2026-04-25 15:54 | 41.25726 | 69.27068 | 1425 ft | 100 kts | 80° |
| 2026-04-25 15:55 | 41.25867 | 69.28319 | 1442 ft | 168 kts | 82° |
| 2026-04-25 15:55 | 41.26050 | 69.29918 | 2089 ft | 179 kts | 82° |
| 2026-04-25 15:55 | 41.26230 | 69.31531 | 3003 ft | 181 kts | 82° |
| 2026-04-25 15:55 | 41.26413 | 69.33147 | 3767 ft | 178 kts | 83° |
| 2026-04-25 15:56 | 41.26597 | 69.34845 | 4175 ft | 194 kts | 83° |
| 2026-04-25 15:56 | 41.26776 | 69.36745 | 4587 ft | 211 kts | 89° |
| 2026-04-25 15:56 | 41.26571 | 69.38780 | 4896 ft | 233 kts | 105° |
| 2026-04-25 15:56 | 41.26103 | 69.40958 | 5337 ft | 252 kts | 107° |
| 2026-04-25 15:57 | 41.25591 | 69.43264 | 5839 ft | 268 kts | 107° |
| 2026-04-25 15:57 | 41.25082 | 69.45673 | 6570 ft | 275 kts | 106° |
| 2026-04-25 15:57 | 41.24592 | 69.48087 | 7383 ft | 277 kts | 106° |
| 2026-04-25 15:57 | 41.24098 | 69.50586 | 8155 ft | 281 kts | 106° |
| 2026-04-25 15:58 | 41.23605 | 69.53117 | 8928 ft | 285 kts | 106° |
| 2026-04-25 15:58 | 41.23114 | 69.55662 | 9696 ft | 288 kts | 106° |
| 2026-04-25 15:58 | 41.22616 | 69.58253 | 10407 ft | 294 kts | 106° |
| 2026-04-25 15:58 | 41.22101 | 69.60931 | 10833 ft | 309 kts | 106° |
| 2026-04-25 15:59 | 41.21556 | 69.63760 | 11224 ft | 325 kts | 106° |
| 2026-04-25 15:59 | 41.20988 | 69.66715 | 11732 ft | 335 kts | 107° |
| 2026-04-25 15:59 | 41.20406 | 69.69751 | 12427 ft | 339 kts | 107° |
| 2026-04-25 15:59 | 41.19823 | 69.72789 | 13110 ft | 342 kts | 107° |
| 2026-04-25 16:00 | 41.19232 | 69.75867 | 13758 ft | 346 kts | 107° |
| 2026-04-25 16:00 | 41.19032 | 69.76907 | 13970 ft | 348 kts | 107° |
| 2026-04-25 16:00 | 41.18029 | 69.82111 | 15015 ft | 353 kts | 107° |
| 2026-04-25 16:00 | 41.17420 | 69.85269 | 15617 ft | 357 kts | 107° |
| 2026-04-25 16:01 | 41.16799 | 69.88477 | 16192 ft | 361 kts | 107° |
| 2026-04-25 16:01 | 41.16171 | 69.91724 | 16753 ft | 365 kts | 107° |
| 2026-04-25 16:01 | 41.15535 | 69.95003 | 17301 ft | 369 kts | 107° |
| 2026-04-25 16:01 | 41.14900 | 69.98270 | 17827 ft | 372 kts | 107° |
| 2026-04-25 16:02 | 41.14248 | 70.01618 | 18345 ft | 376 kts | 107° |
| 2026-04-25 16:02 | 41.13596 | 70.04967 | 18844 ft | 380 kts | 107° |
| 2026-04-25 16:02 | 41.12928 | 70.08392 | 19334 ft | 384 kts | 107° |
| 2026-04-25 16:02 | 41.12260 | 70.11807 | 19796 ft | 388 kts | 107° |
| 2026-04-25 16:03 | 41.11581 | 70.15269 | 20245 ft | 392 kts | 107° |
| 2026-04-25 16:03 | 41.10891 | 70.18789 | 20721 ft | 395 kts | 107° |
| 2026-04-25 16:03 | 41.10427 | 70.22405 | 21162 ft | 402 kts | 93° |
| 2026-04-25 16:03 | 41.10757 | 70.26102 | 21594 ft | 409 kts | 74° |
| 2026-04-25 16:04 | 41.11865 | 70.29563 | 22040 ft | 412 kts | 62° |
| 2026-04-25 16:04 | 41.13222 | 70.32873 | 22460 ft | 415 kts | 60° |
| 2026-04-25 16:04 | 41.14650 | 70.36249 | 22863 ft | 419 kts | 60° |
| 2026-04-25 16:04 | 41.16060 | 70.39606 | 23250 ft | 423 kts | 60° |
| 2026-04-25 16:05 | 41.17491 | 70.43057 | 23647 ft | 426 kts | 60° |
| 2026-04-25 16:05 | 41.18909 | 70.46513 | 24051 ft | 429 kts | 60° |
| 2026-04-25 16:05 | 41.21748 | 70.53493 | 24838 ft | 434 kts | 60° |
| 2026-04-25 16:06 | 41.23188 | 70.57049 | 25215 ft | 437 kts | 60° |
| 2026-04-25 16:06 | 41.24625 | 70.60605 | 25588 ft | 440 kts | 60° |
| 2026-04-25 16:06 | 41.26065 | 70.64173 | 25954 ft | 442 kts | 60° |
| 2026-04-25 16:06 | 41.27533 | 70.67817 | 26314 ft | 445 kts | 60° |
| 2026-04-25 16:07 | 41.28976 | 70.71401 | 26656 ft | 447 kts | 60° |
| 2026-04-25 16:07 | 41.29462 | 70.72609 | 26768 ft | 447 kts | 60° |
| 2026-04-25 16:07 | 41.31921 | 70.78730 | 27314 ft | 451 kts | 60° |
| 2026-04-25 16:07 | 41.33389 | 70.82389 | 27633 ft | 453 kts | 60° |
| 2026-04-25 16:08 | 41.34877 | 70.86096 | 27970 ft | 455 kts | 60° |
| 2026-04-25 16:08 | 41.36356 | 70.89790 | 28298 ft | 456 kts | 60° |
| 2026-04-25 16:08 | 41.37859 | 70.93549 | 28624 ft | 457 kts | 61° |
| 2026-04-25 16:08 | 41.39344 | 70.97274 | 28947 ft | 458 kts | 61° |
| 2026-04-25 16:09 | 41.40834 | 71.01012 | 29269 ft | 459 kts | 61° |
| 2026-04-25 16:09 | 41.42329 | 71.04766 | 29577 ft | 460 kts | 61° |
| 2026-04-25 16:09 | 41.43827 | 71.08537 | 29874 ft | 461 kts | 61° |
| 2026-04-25 16:09 | 41.45324 | 71.12312 | 30131 ft | 463 kts | 61° |
| 2026-04-25 16:10 | 41.46818 | 71.16085 | 30392 ft | 464 kts | 61° |
| 2026-04-25 16:10 | 41.48333 | 71.19913 | 30707 ft | 464 kts | 61° |
| 2026-04-25 16:10 | 41.49797 | 71.23692 | 30984 ft | 465 kts | 62° |
| 2026-04-25 16:11 | 41.52178 | 71.30163 | 31086 ft | 467 kts | 63° |